sensor_id;sensor_type;location;lat;lon;timestamp;P1;durP1;ratioP1;P2;durP2;ratioP2
16766;SDS011;8501;49.926;8.404;2022-09-11T00:00:38;4.45;;;4.03;;
16766;SDS011;8501;49.926;8.404;2022-09-11T00:03:03;5.20;;;3.78;;
16766;SDS011;8501;49.926;8.404;2022-09-11T00:05:29;4.10;;;3.70;;
16766;SDS011;8501;49.926;8.404;2022-09-11T00:07:55;4.40;;;3.92;;
16766;SDS011;8501;49.926;8.404;2022-09-11T00:10:21;5.00;;;4.40;;
16766;SDS011;8501;49.926;8.404;2022-09-11T00:12:48;6.00;;;4.57;;
16766;SDS011;8501;49.926;8.404;2022-09-11T00:15:14;5.40;;;4.25;;
16766;SDS011;8501;49.926;8.404;2022-09-11T00:17:41;4.88;;;4.25;;
16766;SDS011;8501;49.926;8.404;2022-09-11T00:20:06;6.25;;;4.40;;
16766;SDS011;8501;49.926;8.404;2022-09-11T00:22:32;5.65;;;4.55;;
16766;SDS011;8501;49.926;8.404;2022-09-11T00:24:58;5.00;;;4.47;;
16766;SDS011;8501;49.926;8.404;2022-09-11T00:27:23;5.72;;;4.82;;
16766;SDS011;8501;49.926;8.404;2022-09-11T00:29:49;5.20;;;4.65;;
16766;SDS011;8501;49.926;8.404;2022-09-11T00:32:14;5.22;;;4.72;;
16766;SDS011;8501;49.926;8.404;2022-09-11T00:34:40;6.15;;;4.85;;
16766;SDS011;8501;49.926;8.404;2022-09-11T00:37:06;4.95;;;4.43;;
16766;SDS011;8501;49.926;8.404;2022-09-11T00:39:31;5.65;;;4.88;;
16766;SDS011;8501;49.926;8.404;2022-09-11T00:41:57;5.45;;;4.95;;
16766;SDS011;8501;49.926;8.404;2022-09-11T00:47:00;6.65;;;5.10;;
16766;SDS011;8501;49.926;8.404;2022-09-11T00:49:33;6.40;;;5.57;;
16766;SDS011;8501;49.926;8.404;2022-09-11T00:52:09;6.53;;;5.40;;
16766;SDS011;8501;49.926;8.404;2022-09-11T00:54:54;7.18;;;5.50;;
16766;SDS011;8501;49.926;8.404;2022-09-11T00:57:25;10.77;;;6.40;;
16766;SDS011;8501;49.926;8.404;2022-09-11T00:59:54;8.13;;;7.07;;
16766;SDS011;8501;49.926;8.404;2022-09-11T01:02:22;8.02;;;7.07;;
16766;SDS011;8501;49.926;8.404;2022-09-11T01:04:51;9.05;;;7.28;;
16766;SDS011;8501;49.926;8.404;2022-09-11T01:07:17;8.73;;;7.15;;
16766;SDS011;8501;49.926;8.404;2022-09-11T01:09:45;8.45;;;7.53;;
16766;SDS011;8501;49.926;8.404;2022-09-11T01:12:16;10.18;;;8.02;;
16766;SDS011;8501;49.926;8.404;2022-09-11T01:14:55;11.45;;;8.15;;
16766;SDS011;8501;49.926;8.404;2022-09-11T01:17:26;12.65;;;9.40;;
16766;SDS011;8501;49.926;8.404;2022-09-11T01:20:20;10.65;;;8.57;;
16766;SDS011;8501;49.926;8.404;2022-09-11T01:22:56;12.15;;;9.82;;
16766;SDS011;8501;49.926;8.404;2022-09-11T01:25:47;12.10;;;9.90;;
16766;SDS011;8501;49.926;8.404;2022-09-11T01:28:28;13.40;;;10.73;;
16766;SDS011;8501;49.926;8.404;2022-09-11T01:31:01;14.50;;;10.93;;
16766;SDS011;8501;49.926;8.404;2022-09-11T01:33:42;13.95;;;10.77;;
16766;SDS011;8501;49.926;8.404;2022-09-11T01:36:17;13.10;;;10.15;;
16766;SDS011;8501;49.926;8.404;2022-09-11T01:38:50;13.23;;;10.48;;
16766;SDS011;8501;49.926;8.404;2022-09-11T01:41:23;12.57;;;10.30;;
16766;SDS011;8501;49.926;8.404;2022-09-11T01:43:59;11.98;;;9.15;;
16766;SDS011;8501;49.926;8.404;2022-09-11T01:46:32;12.73;;;9.45;;
16766;SDS011;8501;49.926;8.404;2022-09-11T01:49:06;11.63;;;9.45;;
16766;SDS011;8501;49.926;8.404;2022-09-11T01:51:36;12.30;;;9.30;;
16766;SDS011;8501;49.926;8.404;2022-09-11T01:54:06;11.63;;;9.55;;
16766;SDS011;8501;49.926;8.404;2022-09-11T01:56:43;12.68;;;9.30;;
16766;SDS011;8501;49.926;8.404;2022-09-11T01:59:33;11.02;;;8.95;;
16766;SDS011;8501;49.926;8.404;2022-09-11T02:02:04;12.73;;;9.70;;
16766;SDS011;8501;49.926;8.404;2022-09-11T02:04:35;10.98;;;9.50;;
16766;SDS011;8501;49.926;8.404;2022-09-11T02:07:07;12.60;;;9.80;;
16766;SDS011;8501;49.926;8.404;2022-09-11T02:09:38;11.82;;;9.75;;
16766;SDS011;8501;49.926;8.404;2022-09-11T02:12:10;13.05;;;10.45;;
16766;SDS011;8501;49.926;8.404;2022-09-11T02:14:40;14.48;;;10.93;;
16766;SDS011;8501;49.926;8.404;2022-09-11T02:19:56;12.60;;;10.40;;
16766;SDS011;8501;49.926;8.404;2022-09-11T02:22:24;15.77;;;11.00;;
16766;SDS011;8501;49.926;8.404;2022-09-11T02:24:50;15.40;;;11.80;;
16766;SDS011;8501;49.926;8.404;2022-09-11T02:27:17;16.38;;;11.57;;
16766;SDS011;8501;49.926;8.404;2022-09-11T02:29:46;16.98;;;12.30;;
16766;SDS011;8501;49.926;8.404;2022-09-11T02:32:12;15.48;;;11.27;;
16766;SDS011;8501;49.926;8.404;2022-09-11T02:34:38;15.85;;;12.20;;
16766;SDS011;8501;49.926;8.404;2022-09-11T02:37:52;15.82;;;12.20;;
16766;SDS011;8501;49.926;8.404;2022-09-11T02:48:18;19.20;;;13.77;;
16766;SDS011;8501;49.926;8.404;2022-09-11T02:54:12;20.27;;;13.18;;
16766;SDS011;8501;49.926;8.404;2022-09-11T02:59:31;16.92;;;12.68;;
16766;SDS011;8501;49.926;8.404;2022-09-11T03:02:02;19.05;;;13.88;;
16766;SDS011;8501;49.926;8.404;2022-09-11T03:04:27;21.23;;;13.38;;
16766;SDS011;8501;49.926;8.404;2022-09-11T03:06:54;19.95;;;14.50;;
16766;SDS011;8501;49.926;8.404;2022-09-11T03:09:22;18.58;;;13.63;;
16766;SDS011;8501;49.926;8.404;2022-09-11T03:11:48;19.45;;;14.23;;
16766;SDS011;8501;49.926;8.404;2022-09-11T03:14:14;22.65;;;14.80;;
16766;SDS011;8501;49.926;8.404;2022-09-11T03:16:39;20.98;;;14.73;;
16766;SDS011;8501;49.926;8.404;2022-09-11T03:19:05;21.35;;;15.25;;
16766;SDS011;8501;49.926;8.404;2022-09-11T03:21:31;21.27;;;14.38;;
16766;SDS011;8501;49.926;8.404;2022-09-11T03:23:59;21.50;;;14.43;;
16766;SDS011;8501;49.926;8.404;2022-09-11T03:26:25;21.52;;;14.50;;
16766;SDS011;8501;49.926;8.404;2022-09-11T03:28:51;22.25;;;15.02;;
16766;SDS011;8501;49.926;8.404;2022-09-11T03:31:18;21.55;;;15.15;;
16766;SDS011;8501;49.926;8.404;2022-09-11T03:33:43;20.10;;;14.70;;
16766;SDS011;8501;49.926;8.404;2022-09-11T03:36:09;21.70;;;15.10;;
16766;SDS011;8501;49.926;8.404;2022-09-11T03:38:35;22.35;;;14.65;;
16766;SDS011;8501;49.926;8.404;2022-09-11T03:41:01;20.23;;;13.93;;
16766;SDS011;8501;49.926;8.404;2022-09-11T03:43:27;19.92;;;13.30;;
16766;SDS011;8501;49.926;8.404;2022-09-11T03:45:53;19.55;;;14.10;;
16766;SDS011;8501;49.926;8.404;2022-09-11T03:48:19;19.73;;;14.27;;
16766;SDS011;8501;49.926;8.404;2022-09-11T03:50:45;20.95;;;14.82;;
16766;SDS011;8501;49.926;8.404;2022-09-11T03:53:11;19.10;;;14.35;;
16766;SDS011;8501;49.926;8.404;2022-09-11T03:55:38;18.75;;;13.98;;
16766;SDS011;8501;49.926;8.404;2022-09-11T03:58:05;17.55;;;13.43;;
16766;SDS011;8501;49.926;8.404;2022-09-11T04:00:31;20.02;;;14.13;;
16766;SDS011;8501;49.926;8.404;2022-09-11T04:02:57;21.05;;;14.90;;
16766;SDS011;8501;49.926;8.404;2022-09-11T04:05:23;21.25;;;14.32;;
16766;SDS011;8501;49.926;8.404;2022-09-11T04:07:50;20.60;;;14.95;;
16766;SDS011;8501;49.926;8.404;2022-09-11T04:10:16;23.33;;;15.35;;
16766;SDS011;8501;49.926;8.404;2022-09-11T04:12:43;20.90;;;14.85;;
16766;SDS011;8501;49.926;8.404;2022-09-11T04:15:09;20.45;;;14.20;;
16766;SDS011;8501;49.926;8.404;2022-09-11T04:17:34;21.77;;;15.45;;
16766;SDS011;8501;49.926;8.404;2022-09-11T04:20:00;21.45;;;14.98;;
16766;SDS011;8501;49.926;8.404;2022-09-11T04:22:26;21.65;;;14.82;;
16766;SDS011;8501;49.926;8.404;2022-09-11T04:24:52;19.77;;;14.10;;
16766;SDS011;8501;49.926;8.404;2022-09-11T04:27:17;17.60;;;13.18;;
16766;SDS011;8501;49.926;8.404;2022-09-11T04:29:43;19.55;;;13.93;;
16766;SDS011;8501;49.926;8.404;2022-09-11T04:32:08;22.40;;;14.43;;
16766;SDS011;8501;49.926;8.404;2022-09-11T04:34:35;22.05;;;14.88;;
16766;SDS011;8501;49.926;8.404;2022-09-11T04:37:01;22.15;;;15.40;;
16766;SDS011;8501;49.926;8.404;2022-09-11T04:39:27;21.70;;;15.30;;
16766;SDS011;8501;49.926;8.404;2022-09-11T04:41:53;24.75;;;16.67;;
16766;SDS011;8501;49.926;8.404;2022-09-11T04:44:19;23.35;;;16.23;;
16766;SDS011;8501;49.926;8.404;2022-09-11T04:46:45;26.45;;;16.25;;
16766;SDS011;8501;49.926;8.404;2022-09-11T04:49:11;26.98;;;18.02;;
16766;SDS011;8501;49.926;8.404;2022-09-11T04:51:38;30.05;;;18.10;;
16766;SDS011;8501;49.926;8.404;2022-09-11T04:54:05;28.77;;;17.60;;
16766;SDS011;8501;49.926;8.404;2022-09-11T04:56:32;26.40;;;17.80;;
16766;SDS011;8501;49.926;8.404;2022-09-11T04:59:01;30.80;;;19.38;;
16766;SDS011;8501;49.926;8.404;2022-09-11T05:01:29;27.92;;;19.35;;
16766;SDS011;8501;49.926;8.404;2022-09-11T05:03:57;29.67;;;18.92;;
16766;SDS011;8501;49.926;8.404;2022-09-11T05:06:26;30.35;;;18.77;;
16766;SDS011;8501;49.926;8.404;2022-09-11T05:08:52;30.83;;;19.85;;
16766;SDS011;8501;49.926;8.404;2022-09-11T05:11:18;29.70;;;18.77;;
16766;SDS011;8501;49.926;8.404;2022-09-11T05:13:47;28.40;;;18.92;;
16766;SDS011;8501;49.926;8.404;2022-09-11T05:16:13;33.20;;;21.08;;
16766;SDS011;8501;49.926;8.404;2022-09-11T05:18:42;31.83;;;19.27;;
16766;SDS011;8501;49.926;8.404;2022-09-11T05:21:12;30.17;;;18.63;;
16766;SDS011;8501;49.926;8.404;2022-09-11T05:23:40;27.88;;;18.90;;
16766;SDS011;8501;49.926;8.404;2022-09-11T05:26:07;31.10;;;19.30;;
16766;SDS011;8501;49.926;8.404;2022-09-11T05:28:41;29.75;;;19.05;;
16766;SDS011;8501;49.926;8.404;2022-09-11T05:31:11;27.67;;;17.88;;
16766;SDS011;8501;49.926;8.404;2022-09-11T05:33:42;31.92;;;18.65;;
16766;SDS011;8501;49.926;8.404;2022-09-11T05:36:09;29.30;;;18.25;;
16766;SDS011;8501;49.926;8.404;2022-09-11T05:38:35;27.23;;;17.63;;
16766;SDS011;8501;49.926;8.404;2022-09-11T05:41:03;29.52;;;18.48;;
16766;SDS011;8501;49.926;8.404;2022-09-11T05:43:33;24.30;;;17.15;;
16766;SDS011;8501;49.926;8.404;2022-09-11T05:45:59;25.67;;;16.57;;
16766;SDS011;8501;49.926;8.404;2022-09-11T05:48:28;24.23;;;16.65;;
16766;SDS011;8501;49.926;8.404;2022-09-11T05:50:59;25.90;;;17.25;;
16766;SDS011;8501;49.926;8.404;2022-09-11T05:53:26;23.17;;;15.57;;
16766;SDS011;8501;49.926;8.404;2022-09-11T05:55:52;22.65;;;15.52;;
16766;SDS011;8501;49.926;8.404;2022-09-11T05:58:24;22.45;;;15.40;;
16766;SDS011;8501;49.926;8.404;2022-09-11T06:01:01;22.38;;;15.15;;
16766;SDS011;8501;49.926;8.404;2022-09-11T06:03:30;23.98;;;15.93;;
16766;SDS011;8501;49.926;8.404;2022-09-11T06:06:17;22.38;;;15.63;;
16766;SDS011;8501;49.926;8.404;2022-09-11T06:08:43;23.00;;;15.95;;
16766;SDS011;8501;49.926;8.404;2022-09-11T06:11:10;24.15;;;17.15;;
16766;SDS011;8501;49.926;8.404;2022-09-11T06:13:38;22.20;;;15.82;;
16766;SDS011;8501;49.926;8.404;2022-09-11T06:16:09;21.48;;;15.68;;
16766;SDS011;8501;49.926;8.404;2022-09-11T06:18:35;24.13;;;15.55;;
16766;SDS011;8501;49.926;8.404;2022-09-11T06:21:02;21.23;;;15.90;;
16766;SDS011;8501;49.926;8.404;2022-09-11T06:23:31;23.23;;;16.30;;
16766;SDS011;8501;49.926;8.404;2022-09-11T06:26:04;26.13;;;16.52;;
16766;SDS011;8501;49.926;8.404;2022-09-11T06:28:31;23.55;;;16.13;;
16766;SDS011;8501;49.926;8.404;2022-09-11T06:30:59;24.33;;;16.52;;
16766;SDS011;8501;49.926;8.404;2022-09-11T06:33:29;25.60;;;16.83;;
16766;SDS011;8501;49.926;8.404;2022-09-11T06:35:59;25.75;;;17.08;;
16766;SDS011;8501;49.926;8.404;2022-09-11T06:38:26;29.98;;;18.88;;
16766;SDS011;8501;49.926;8.404;2022-09-11T06:40:52;28.70;;;19.20;;
16766;SDS011;8501;49.926;8.404;2022-09-11T06:43:18;30.88;;;20.50;;
16766;SDS011;8501;49.926;8.404;2022-09-11T06:45:44;30.15;;;19.33;;
16766;SDS011;8501;49.926;8.404;2022-09-11T06:48:19;30.45;;;19.33;;
16766;SDS011;8501;49.926;8.404;2022-09-11T06:50:44;26.85;;;17.90;;
16766;SDS011;8501;49.926;8.404;2022-09-11T06:53:10;24.80;;;17.48;;
16766;SDS011;8501;49.926;8.404;2022-09-11T06:55:38;22.10;;;15.80;;
16766;SDS011;8501;49.926;8.404;2022-09-11T06:58:04;22.83;;;15.65;;
16766;SDS011;8501;49.926;8.404;2022-09-11T07:00:30;21.73;;;15.07;;
16766;SDS011;8501;49.926;8.404;2022-09-11T07:02:58;19.90;;;14.63;;
16766;SDS011;8501;49.926;8.404;2022-09-11T07:05:23;19.70;;;14.48;;
16766;SDS011;8501;49.926;8.404;2022-09-11T07:07:53;19.95;;;14.43;;
16766;SDS011;8501;49.926;8.404;2022-09-11T07:10:19;22.48;;;14.05;;
16766;SDS011;8501;49.926;8.404;2022-09-11T07:12:46;18.88;;;13.55;;
16766;SDS011;8501;49.926;8.404;2022-09-11T07:15:12;18.23;;;13.43;;
16766;SDS011;8501;49.926;8.404;2022-09-11T07:17:38;18.13;;;13.60;;
16766;SDS011;8501;49.926;8.404;2022-09-11T07:20:03;17.83;;;12.55;;
16766;SDS011;8501;49.926;8.404;2022-09-11T07:22:31;17.98;;;12.93;;
16766;SDS011;8501;49.926;8.404;2022-09-11T07:24:57;18.88;;;13.07;;
16766;SDS011;8501;49.926;8.404;2022-09-11T07:27:24;18.92;;;13.10;;
16766;SDS011;8501;49.926;8.404;2022-09-11T07:29:50;20.30;;;13.60;;
16766;SDS011;8501;49.926;8.404;2022-09-11T07:32:16;18.92;;;13.07;;
16766;SDS011;8501;49.926;8.404;2022-09-11T07:34:41;19.67;;;13.40;;
16766;SDS011;8501;49.926;8.404;2022-09-11T07:37:07;18.33;;;13.88;;
16766;SDS011;8501;49.926;8.404;2022-09-11T07:39:32;18.05;;;12.80;;
16766;SDS011;8501;49.926;8.404;2022-09-11T07:41:58;22.50;;;13.18;;
16766;SDS011;8501;49.926;8.404;2022-09-11T07:44:24;19.27;;;13.57;;
16766;SDS011;8501;49.926;8.404;2022-09-11T07:46:49;18.25;;;12.63;;
16766;SDS011;8501;49.926;8.404;2022-09-11T07:49:15;19.38;;;13.82;;
16766;SDS011;8501;49.926;8.404;2022-09-11T07:51:41;18.33;;;13.43;;
16766;SDS011;8501;49.926;8.404;2022-09-11T07:54:10;20.80;;;13.65;;
16766;SDS011;8501;49.926;8.404;2022-09-11T07:56:36;20.73;;;14.63;;
16766;SDS011;8501;49.926;8.404;2022-09-11T07:59:05;20.98;;;15.07;;
16766;SDS011;8501;49.926;8.404;2022-09-11T08:01:32;24.65;;;15.05;;
16766;SDS011;8501;49.926;8.404;2022-09-11T08:04:02;26.00;;;16.45;;
16766;SDS011;8501;49.926;8.404;2022-09-11T08:06:30;25.63;;;16.52;;
16766;SDS011;8501;49.926;8.404;2022-09-11T08:08:58;26.92;;;16.25;;
16766;SDS011;8501;49.926;8.404;2022-09-11T08:11:29;25.63;;;16.83;;
16766;SDS011;8501;49.926;8.404;2022-09-11T08:13:56;28.60;;;18.02;;
16766;SDS011;8501;49.926;8.404;2022-09-11T08:16:23;27.45;;;17.50;;
16766;SDS011;8501;49.926;8.404;2022-09-11T08:18:50;25.77;;;16.25;;
16766;SDS011;8501;49.926;8.404;2022-09-11T08:21:16;27.98;;;17.08;;
16766;SDS011;8501;49.926;8.404;2022-09-11T08:23:42;24.88;;;15.93;;
16766;SDS011;8501;49.926;8.404;2022-09-11T08:26:26;24.33;;;15.40;;
16766;SDS011;8501;49.926;8.404;2022-09-11T08:28:53;25.25;;;15.90;;
16766;SDS011;8501;49.926;8.404;2022-09-11T08:31:21;23.02;;;15.00;;
16766;SDS011;8501;49.926;8.404;2022-09-11T08:33:50;23.67;;;14.65;;
16766;SDS011;8501;49.926;8.404;2022-09-11T08:36:15;22.35;;;14.40;;
16766;SDS011;8501;49.926;8.404;2022-09-11T08:38:42;24.88;;;14.30;;
16766;SDS011;8501;49.926;8.404;2022-09-11T08:43:58;23.45;;;14.65;;
16766;SDS011;8501;49.926;8.404;2022-09-11T08:46:37;22.20;;;14.35;;
16766;SDS011;8501;49.926;8.404;2022-09-11T08:49:20;21.90;;;14.07;;
16766;SDS011;8501;49.926;8.404;2022-09-11T08:51:57;24.00;;;15.32;;
16766;SDS011;8501;49.926;8.404;2022-09-11T08:54:36;21.25;;;14.35;;
16766;SDS011;8501;49.926;8.404;2022-09-11T09:00:21;28.75;;;17.55;;
16766;SDS011;8501;49.926;8.404;2022-09-11T09:05:18;25.85;;;16.52;;
16766;SDS011;8501;49.926;8.404;2022-09-11T09:15:52;29.38;;;18.05;;
16766;SDS011;8501;49.926;8.404;2022-09-11T09:18:41;17.67;;;12.27;;
16766;SDS011;8501;49.926;8.404;2022-09-11T09:21:32;14.65;;;11.13;;
16766;SDS011;8501;49.926;8.404;2022-09-11T09:24:02;17.23;;;11.00;;
16766;SDS011;8501;49.926;8.404;2022-09-11T09:26:43;15.88;;;11.27;;
16766;SDS011;8501;49.926;8.404;2022-09-11T09:29:13;16.33;;;11.48;;
16766;SDS011;8501;49.926;8.404;2022-09-11T09:31:44;16.92;;;11.23;;
16766;SDS011;8501;49.926;8.404;2022-09-11T09:34:20;18.08;;;12.15;;
16766;SDS011;8501;49.926;8.404;2022-09-11T09:39:45;15.65;;;11.98;;
16766;SDS011;8501;49.926;8.404;2022-09-11T09:48:09;17.60;;;12.32;;
16766;SDS011;8501;49.926;8.404;2022-09-11T09:50:39;14.52;;;10.95;;
16766;SDS011;8501;49.926;8.404;2022-09-11T09:53:13;17.13;;;12.40;;
16766;SDS011;8501;49.926;8.404;2022-09-11T09:55:51;18.92;;;12.65;;
16766;SDS011;8501;49.926;8.404;2022-09-11T09:58:18;18.63;;;12.60;;
16766;SDS011;8501;49.926;8.404;2022-09-11T10:00:56;18.17;;;12.75;;
16766;SDS011;8501;49.926;8.404;2022-09-11T10:03:22;21.25;;;14.13;;
16766;SDS011;8501;49.926;8.404;2022-09-11T10:05:50;19.92;;;12.98;;
16766;SDS011;8501;49.926;8.404;2022-09-11T10:11:07;17.90;;;12.52;;
16766;SDS011;8501;49.926;8.404;2022-09-11T10:13:40;18.17;;;12.68;;
16766;SDS011;8501;49.926;8.404;2022-09-11T10:16:23;19.48;;;13.13;;
16766;SDS011;8501;49.926;8.404;2022-09-11T10:18:50;20.30;;;13.57;;
16766;SDS011;8501;49.926;8.404;2022-09-11T10:21:23;18.83;;;13.45;;
16766;SDS011;8501;49.926;8.404;2022-09-11T10:24:02;19.27;;;13.68;;
16766;SDS011;8501;49.926;8.404;2022-09-11T10:26:47;18.65;;;12.95;;
16766;SDS011;8501;49.926;8.404;2022-09-11T10:29:22;19.48;;;12.80;;
16766;SDS011;8501;49.926;8.404;2022-09-11T10:31:53;20.08;;;12.70;;
16766;SDS011;8501;49.926;8.404;2022-09-11T10:34:26;16.05;;;11.27;;
16766;SDS011;8501;49.926;8.404;2022-09-11T10:37:01;15.07;;;11.10;;
16766;SDS011;8501;49.926;8.404;2022-09-11T10:39:41;14.40;;;10.30;;
16766;SDS011;8501;49.926;8.404;2022-09-11T10:42:11;16.50;;;10.20;;
16766;SDS011;8501;49.926;8.404;2022-09-11T10:44:44;14.13;;;9.77;;
16766;SDS011;8501;49.926;8.404;2022-09-11T10:55:28;11.93;;;9.55;;
16766;SDS011;8501;49.926;8.404;2022-09-11T10:58:01;10.88;;;8.57;;
16766;SDS011;8501;49.926;8.404;2022-09-11T11:00:33;12.68;;;9.18;;
16766;SDS011;8501;49.926;8.404;2022-09-11T11:03:02;11.93;;;9.32;;
16766;SDS011;8501;49.926;8.404;2022-09-11T11:36:43;9.48;;;7.38;;
16766;SDS011;8501;49.926;8.404;2022-09-11T11:39:26;10.00;;;7.55;;
16766;SDS011;8501;49.926;8.404;2022-09-11T11:44:43;8.35;;;7.45;;
16766;SDS011;8501;49.926;8.404;2022-09-11T11:47:15;9.48;;;7.40;;
16766;SDS011;8501;49.926;8.404;2022-09-11T11:52:55;9.52;;;6.93;;
16766;SDS011;8501;49.926;8.404;2022-09-11T11:55:31;9.20;;;7.47;;
16766;SDS011;8501;49.926;8.404;2022-09-11T11:58:18;9.38;;;7.72;;
16766;SDS011;8501;49.926;8.404;2022-09-11T12:00:55;8.65;;;6.85;;
16766;SDS011;8501;49.926;8.404;2022-09-11T12:06:00;9.90;;;7.75;;
16766;SDS011;8501;49.926;8.404;2022-09-11T12:08:26;10.07;;;7.85;;
16766;SDS011;8501;49.926;8.404;2022-09-11T12:10:53;11.35;;;8.02;;
16766;SDS011;8501;49.926;8.404;2022-09-11T12:13:28;9.73;;;7.93;;
16766;SDS011;8501;49.926;8.404;2022-09-11T12:16:09;12.95;;;8.95;;
16766;SDS011;8501;49.926;8.404;2022-09-11T12:18:35;10.80;;;8.55;;
16766;SDS011;8501;49.926;8.404;2022-09-11T12:21:44;10.88;;;8.32;;
16766;SDS011;8501;49.926;8.404;2022-09-11T12:28:47;10.15;;;8.00;;
16766;SDS011;8501;49.926;8.404;2022-09-11T12:32:16;10.88;;;7.70;;
16766;SDS011;8501;49.926;8.404;2022-09-11T12:37:09;9.93;;;7.28;;
16766;SDS011;8501;49.926;8.404;2022-09-11T12:47:21;10.43;;;7.70;;
16766;SDS011;8501;49.926;8.404;2022-09-11T12:52:30;10.98;;;8.20;;
16766;SDS011;8501;49.926;8.404;2022-09-11T13:00:43;10.20;;;7.47;;
16766;SDS011;8501;49.926;8.404;2022-09-11T13:03:30;9.00;;;7.53;;
16766;SDS011;8501;49.926;8.404;2022-09-11T13:06:06;10.63;;;7.80;;
16766;SDS011;8501;49.926;8.404;2022-09-11T13:08:48;9.73;;;7.72;;
16766;SDS011;8501;49.926;8.404;2022-09-11T13:14:01;11.05;;;7.80;;
16766;SDS011;8501;49.926;8.404;2022-09-11T13:16:28;11.23;;;8.02;;
16766;SDS011;8501;49.926;8.404;2022-09-11T13:19:14;8.93;;;7.35;;
16766;SDS011;8501;49.926;8.404;2022-09-11T13:21:41;10.40;;;7.43;;
16766;SDS011;8501;49.926;8.404;2022-09-11T13:24:20;9.07;;;7.40;;
16766;SDS011;8501;49.926;8.404;2022-09-11T13:26:54;8.55;;;6.97;;
16766;SDS011;8501;49.926;8.404;2022-09-11T13:29:24;8.88;;;7.00;;
16766;SDS011;8501;49.926;8.404;2022-09-11T13:31:53;9.00;;;6.60;;
16766;SDS011;8501;49.926;8.404;2022-09-11T13:34:21;9.25;;;7.20;;
16766;SDS011;8501;49.926;8.404;2022-09-11T13:36:48;9.25;;;7.10;;
16766;SDS011;8501;49.926;8.404;2022-09-11T13:39:14;9.85;;;7.10;;
16766;SDS011;8501;49.926;8.404;2022-09-11T13:41:43;9.73;;;7.13;;
16766;SDS011;8501;49.926;8.404;2022-09-11T13:44:57;8.13;;;6.55;;
16766;SDS011;8501;49.926;8.404;2022-09-11T13:46:57;9.15;;;7.03;;
16766;SDS011;8501;49.926;8.404;2022-09-11T13:49:32;8.35;;;6.60;;
16766;SDS011;8501;49.926;8.404;2022-09-11T13:52:00;10.18;;;7.47;;
16766;SDS011;8501;49.926;8.404;2022-09-11T13:54:30;8.93;;;7.10;;
16766;SDS011;8501;49.926;8.404;2022-09-11T13:59:43;10.07;;;7.53;;
16766;SDS011;8501;49.926;8.404;2022-09-11T14:05:07;9.40;;;7.00;;
16766;SDS011;8501;49.926;8.404;2022-09-11T14:13:24;8.68;;;6.85;;
16766;SDS011;8501;49.926;8.404;2022-09-11T14:15:58;8.45;;;6.60;;
16766;SDS011;8501;49.926;8.404;2022-09-11T14:18:33;7.28;;;6.30;;
16766;SDS011;8501;49.926;8.404;2022-09-11T14:21:09;7.82;;;6.53;;
16766;SDS011;8501;49.926;8.404;2022-09-11T14:23:40;7.85;;;6.60;;
16766;SDS011;8501;49.926;8.404;2022-09-11T14:26:10;8.38;;;6.22;;
16766;SDS011;8501;49.926;8.404;2022-09-11T14:31:31;6.85;;;6.10;;
16766;SDS011;8501;49.926;8.404;2022-09-11T14:36:48;7.28;;;6.03;;
16766;SDS011;8501;49.926;8.404;2022-09-11T14:39:46;7.25;;;6.53;;
16766;SDS011;8501;49.926;8.404;2022-09-11T14:42:17;7.00;;;6.30;;
16766;SDS011;8501;49.926;8.404;2022-09-11T14:44:45;6.90;;;5.88;;
16766;SDS011;8501;49.926;8.404;2022-09-11T14:47:13;7.90;;;6.00;;
16766;SDS011;8501;49.926;8.404;2022-09-11T14:49:43;7.85;;;6.22;;
16766;SDS011;8501;49.926;8.404;2022-09-11T14:52:13;6.72;;;6.03;;
16766;SDS011;8501;49.926;8.404;2022-09-11T14:54:40;12.30;;;10.65;;
16766;SDS011;8501;49.926;8.404;2022-09-11T14:57:13;15.65;;;13.52;;
16766;SDS011;8501;49.926;8.404;2022-09-11T14:59:41;15.13;;;12.10;;
16766;SDS011;8501;49.926;8.404;2022-09-11T15:02:13;7.70;;;7.00;;
16766;SDS011;8501;49.926;8.404;2022-09-11T15:04:45;8.63;;;6.93;;
16766;SDS011;8501;49.926;8.404;2022-09-11T15:07:11;7.15;;;6.45;;
16766;SDS011;8501;49.926;8.404;2022-09-11T15:09:39;8.55;;;6.35;;
16766;SDS011;8501;49.926;8.404;2022-09-11T15:12:05;7.20;;;5.80;;
16766;SDS011;8501;49.926;8.404;2022-09-11T15:14:32;6.68;;;5.97;;
16766;SDS011;8501;49.926;8.404;2022-09-11T15:16:58;6.97;;;6.10;;
16766;SDS011;8501;49.926;8.404;2022-09-11T15:19:25;6.90;;;6.20;;
16766;SDS011;8501;49.926;8.404;2022-09-11T15:21:51;6.47;;;5.78;;
16766;SDS011;8501;49.926;8.404;2022-09-11T15:24:17;6.50;;;5.63;;
16766;SDS011;8501;49.926;8.404;2022-09-11T15:26:43;7.57;;;6.15;;
16766;SDS011;8501;49.926;8.404;2022-09-11T15:29:10;8.88;;;6.78;;
16766;SDS011;8501;49.926;8.404;2022-09-11T15:31:36;7.82;;;6.18;;
16766;SDS011;8501;49.926;8.404;2022-09-11T15:34:02;7.72;;;6.50;;
16766;SDS011;8501;49.926;8.404;2022-09-11T15:36:33;6.88;;;6.18;;
16766;SDS011;8501;49.926;8.404;2022-09-11T15:39:10;6.85;;;5.95;;
16766;SDS011;8501;49.926;8.404;2022-09-11T15:41:43;8.43;;;6.53;;
16766;SDS011;8501;49.926;8.404;2022-09-11T15:44:10;7.50;;;6.20;;
16766;SDS011;8501;49.926;8.404;2022-09-11T15:46:37;7.30;;;6.32;;
16766;SDS011;8501;49.926;8.404;2022-09-11T15:49:03;7.05;;;5.80;;
16766;SDS011;8501;49.926;8.404;2022-09-11T15:51:30;7.18;;;5.93;;
16766;SDS011;8501;49.926;8.404;2022-09-11T15:54:01;7.15;;;5.90;;
16766;SDS011;8501;49.926;8.404;2022-09-11T15:56:30;6.78;;;6.07;;
16766;SDS011;8501;49.926;8.404;2022-09-11T15:58:57;7.28;;;5.70;;
16766;SDS011;8501;49.926;8.404;2022-09-11T16:01:28;6.85;;;6.15;;
16766;SDS011;8501;49.926;8.404;2022-09-11T16:03:57;7.93;;;7.05;;
16766;SDS011;8501;49.926;8.404;2022-09-11T16:06:25;7.68;;;5.75;;
16766;SDS011;8501;49.926;8.404;2022-09-11T16:08:54;7.78;;;6.40;;
16766;SDS011;8501;49.926;8.404;2022-09-11T16:11:24;7.22;;;5.75;;
16766;SDS011;8501;49.926;8.404;2022-09-11T16:13:50;7.40;;;5.78;;
16766;SDS011;8501;49.926;8.404;2022-09-11T16:16:17;7.03;;;5.97;;
16766;SDS011;8501;49.926;8.404;2022-09-11T16:18:43;7.65;;;5.95;;
16766;SDS011;8501;49.926;8.404;2022-09-11T16:21:10;6.63;;;5.75;;
16766;SDS011;8501;49.926;8.404;2022-09-11T16:23:37;8.02;;;6.15;;
16766;SDS011;8501;49.926;8.404;2022-09-11T16:26:05;7.78;;;6.38;;
16766;SDS011;8501;49.926;8.404;2022-09-11T16:28:32;7.13;;;5.82;;
16766;SDS011;8501;49.926;8.404;2022-09-11T16:31:01;7.20;;;5.70;;
16766;SDS011;8501;49.926;8.404;2022-09-11T16:33:30;8.30;;;6.07;;
16766;SDS011;8501;49.926;8.404;2022-09-11T16:36:04;6.93;;;5.88;;
16766;SDS011;8501;49.926;8.404;2022-09-11T16:38:35;6.75;;;6.00;;
16766;SDS011;8501;49.926;8.404;2022-09-11T16:41:13;7.95;;;6.20;;
16766;SDS011;8501;49.926;8.404;2022-09-11T16:43:41;7.57;;;6.15;;
16766;SDS011;8501;49.926;8.404;2022-09-11T16:46:09;7.70;;;5.63;;
16766;SDS011;8501;49.926;8.404;2022-09-11T16:48:37;7.00;;;6.28;;
16766;SDS011;8501;49.926;8.404;2022-09-11T16:51:03;7.72;;;6.00;;
16766;SDS011;8501;49.926;8.404;2022-09-11T16:53:30;6.53;;;5.85;;
16766;SDS011;8501;49.926;8.404;2022-09-11T16:55:57;7.22;;;6.20;;
16766;SDS011;8501;49.926;8.404;2022-09-11T16:58:25;7.80;;;5.97;;
16766;SDS011;8501;49.926;8.404;2022-09-11T17:00:52;7.70;;;6.50;;
16766;SDS011;8501;49.926;8.404;2022-09-11T17:03:18;7.45;;;6.47;;
16766;SDS011;8501;49.926;8.404;2022-09-11T17:05:45;7.65;;;6.15;;
16766;SDS011;8501;49.926;8.404;2022-09-11T17:08:12;6.80;;;5.97;;
16766;SDS011;8501;49.926;8.404;2022-09-11T17:10:40;7.10;;;6.15;;
16766;SDS011;8501;49.926;8.404;2022-09-11T17:13:08;6.30;;;5.70;;
16766;SDS011;8501;49.926;8.404;2022-09-11T17:15:34;8.43;;;6.10;;
16766;SDS011;8501;49.926;8.404;2022-09-11T17:17:59;7.28;;;6.05;;
16766;SDS011;8501;49.926;8.404;2022-09-11T17:20:25;7.53;;;6.32;;